Time;durP1;ratioP1;P1;durP2;ratioP2;P2;SDS_P1;SDS_P2;PMS_P1;PMS_P2;Temp;Humidity;BMP_temperature;BMP_pressure;BME280_temperature;BME280_humidity;BME280_pressure;Samples;Min_cycle;Max_cycle;Signal;HPM_P1;HPM_P2
2021/09/12 00:01:20;;;;;;;33.67;20.30;;;;;;;14.93;100.00;101709.69;5082261;28;20024;-69
2021/09/12 00:03:45;;;;;;;33.65;20.38;;;;;;;14.89;100.00;101710.56;5083161;28;20024;-63
2021/09/12 00:06:10;;;;;;;34.88;20.13;;;;;;;14.86;100.00;101710.56;5080206;28;20543;-67
2021/09/12 00:08:36;;;;;;;32.63;19.35;;;;;;;14.84;100.00;101716.78;5087151;28;20115;-70
2021/09/12 00:11:01;;;;;;;33.88;19.40;;;;;;;14.79;100.00;101714.09;5084371;28;20020;-69
2021/09/12 00:13:27;;;;;;;33.13;20.02;;;;;;;14.74;100.00;101715.91;5085988;28;20051;-67
2021/09/12 00:15:52;;;;;;;32.85;19.75;;;;;;;14.71;100.00;101716.78;5085691;28;20116;-69
2021/09/12 00:18:17;;;;;;;32.40;18.48;;;;;;;14.69;100.00;101720.31;5084797;28;20031;-68
2021/09/12 00:20:43;;;;;;;33.00;18.90;;;;;;;14.68;100.00;101718.53;5068085;28;20044;-69
2021/09/12 00:23:08;;;;;;;30.77;17.38;;;;;;;14.67;100.00;101719.44;5084081;28;20024;-69
2021/09/12 00:25:34;;;;;;;30.80;17.00;;;;;;;14.66;100.00;101712.31;5087051;28;20050;-69
2021/09/12 00:27:59;;;;;;;29.05;16.48;;;;;;;14.62;100.00;101716.75;5084848;28;20024;-70
2021/09/12 00:30:24;;;;;;;30.10;16.45;;;;;;;14.58;100.00;101712.28;5085665;28;20020;-68
2021/09/12 00:32:50;;;;;;;28.63;15.77;;;;;;;14.57;100.00;101719.38;5085576;28;20024;-69
2021/09/12 00:35:15;;;;;;;28.38;14.85;;;;;;;14.55;100.00;101714.94;5084366;28;20097;-68
2021/09/12 00:37:43;;;;;;;31.65;15.77;;;;;;;14.50;100.00;101703.41;5086930;28;20490;-66
2021/09/12 00:40:09;;;;;;;29.33;15.35;;;;;;;14.50;100.00;101709.59;5083524;28;20028;-69
2021/09/12 00:42:34;;;;;;;27.48;14.77;;;;;;;14.50;100.00;101706.94;5086721;28;20105;-69
2021/09/12 00:45:00;;;;;;;29.50;14.63;;;;;;;14.50;100.00;101706.06;5083981;28;20467;-64
2021/09/12 00:47:26;;;;;;;28.10;14.27;;;;;;;14.42;100.00;101703.41;5085239;28;20031;-68
2021/09/12 00:49:51;;;;;;;29.75;14.75;;;;;;;14.35;100.00;101694.50;5085329;28;20102;-68
2021/09/12 00:52:17;;;;;;;28.60;14.50;;;;;;;14.36;100.00;101698.03;5083776;28;20166;-69
2021/09/12 00:54:44;;;;;;;27.38;15.02;;;;;;;14.28;100.00;101700.69;5086149;28;20063;-69
2021/09/12 00:57:12;;;;;;;27.88;14.10;;;;;;;14.24;100.00;101696.25;5083429;28;20036;-70
2021/09/12 00:59:40;;;;;;;29.00;14.52;;;;;;;14.19;100.00;101690.91;5082881;28;20025;-66
2021/09/12 01:02:06;;;;;;;27.65;13.63;;;;;;;14.14;100.00;101690.03;5086100;28;20077;-69
2021/09/12 01:04:33;;;;;;;26.73;12.57;;;;;;;14.07;100.00;101691.78;5083402;28;20029;-69
2021/09/12 01:07:03;;;;;;;25.95;12.50;;;;;;;14.02;100.00;101698.81;5085196;28;20025;-69
2021/09/12 01:09:34;;;;;;;25.75;12.10;;;;;;;13.97;100.00;101697.06;5083936;28;20033;-69
2021/09/12 01:12:00;;;;;;;25.00;11.68;;;;;;;13.89;100.00;101687.28;5085299;28;20035;-68
2021/09/12 01:14:27;;;;;;;26.40;11.98;;;;;;;13.81;100.00;101689.00;5083995;28;20036;-69
2021/09/12 01:16:53;;;;;;;27.42;11.80;;;;;;;13.74;100.00;101689.88;5084455;28;20530;-68
2021/09/12 01:19:18;;;;;;;26.05;11.65;;;;;;;13.65;100.00;101687.19;5084383;28;20099;-68
2021/09/12 01:21:44;;;;;;;26.90;11.88;;;;;;;13.62;100.00;101682.72;5082808;28;20498;-69
2021/09/12 01:24:10;;;;;;;27.55;12.18;;;;;;;13.55;100.00;101681.78;5085881;28;20024;-68
2021/09/12 01:26:35;;;;;;;28.25;12.80;;;;;;;13.50;100.00;101688.88;5082725;28;20040;-70
2021/09/12 01:29:01;;;;;;;27.83;13.45;;;;;;;13.48;100.00;101687.06;5085205;28;20443;-70
2021/09/12 01:31:28;;;;;;;29.30;14.85;;;;;;;13.45;100.00;101681.75;5083706;28;20101;-68
2021/09/12 01:33:54;;;;;;;28.90;14.55;;;;;;;13.42;100.00;101682.63;5084042;28;20028;-70
2021/09/12 01:36:20;;;;;;;29.77;14.80;;;;;;;13.37;100.00;101684.38;5084638;28;20063;-69
2021/09/12 01:38:46;;;;;;;29.17;14.55;;;;;;;13.30;100.00;101674.56;5082641;28;20439;-70
2021/09/12 01:41:12;;;;;;;29.98;15.10;;;;;;;13.26;100.00;101689.56;5085871;28;20505;-69
2021/09/12 01:43:51;;;;;;;30.80;16.00;;;;;;;13.19;100.00;101687.75;5082003;28;20490;-69
2021/09/12 01:46:18;;;;;;;29.83;15.88;;;;;;;13.17;100.00;101686.84;5082687;28;20487;-69
2021/09/12 01:48:43;;;;;;;30.00;15.82;;;;;;;13.12;100.00;101678.88;5085345;28;20439;-69
2021/09/12 01:51:09;;;;;;;29.88;15.98;;;;;;;13.06;100.00;101676.13;5082068;28;20075;-69
2021/09/12 01:53:34;;;;;;;30.75;17.13;;;;;;;13.03;100.00;101682.34;5085070;28;20042;-69
2021/09/12 01:56:00;;;;;;;31.83;16.83;;;;;;;13.01;100.00;101677.88;5083074;28;20020;-69
2021/09/12 01:58:26;;;;;;;31.52;17.27;;;;;;;12.97;100.00;101676.09;5083840;28;20029;-69
2021/09/12 02:00:52;;;;;;;30.60;17.10;;;;;;;12.91;100.00;101666.31;5084076;28;20020;-69
2021/09/12 02:03:19;;;;;;;29.27;16.73;;;;;;;12.87;100.00;101668.06;5082536;28;20025;-68
2021/09/12 02:05:45;;;;;;;31.00;17.08;;;;;;;12.82;100.00;101667.13;5084731;28;20028;-69
2021/09/12 02:08:10;;;;;;;31.20;17.20;;;;;;;12.76;100.00;101671.50;5081589;28;20017;-69
2021/09/12 02:10:35;;;;;;;30.80;17.67;;;;;;;12.69;100.00;101671.44;5067300;28;20023;-69
2021/09/12 02:13:01;;;;;;;32.90;17.45;;;;;;;12.66;100.00;101670.53;5082250;28;20375;-69
2021/09/12 02:15:26;;;;;;;32.38;17.30;;;;;;;12.66;100.00;101681.13;5083662;28;20024;-68
2021/09/12 02:17:51;;;;;;;31.15;16.75;;;;;;;12.61;100.00;101677.53;5083892;28;20490;-69
2021/09/12 02:20:17;;;;;;;33.65;17.13;;;;;;;12.59;100.00;101671.34;5081891;28;20031;-69
2021/09/12 02:22:42;;;;;;;32.75;16.88;;;;;;;12.53;100.00;101675.72;5085071;28;20024;-68
2021/09/12 02:25:08;;;;;;;32.08;17.25;;;;;;;12.51;100.00;101680.13;5081600;28;20434;-69
2021/09/12 02:27:33;;;;;;;34.17;17.02;;;;;;;12.44;100.00;101680.94;5084207;28;20081;-69
2021/09/12 02:29:58;;;;;;;30.25;16.58;;;;;;;12.45;100.00;101682.72;5081846;28;20117;-69
2021/09/12 02:32:25;;;;;;;31.90;16.55;;;;;;;12.39;100.00;101682.63;5082935;28;20387;-69
2021/09/12 02:34:50;;;;;;;30.80;16.48;;;;;;;12.36;100.00;101688.81;5083341;28;20054;-69
2021/09/12 02:37:16;;;;;;;34.45;17.40;;;;;;;12.32;100.00;101686.09;5081883;28;20024;-69
2021/09/12 02:39:41;;;;;;;30.92;17.02;;;;;;;12.29;100.00;101692.28;5084818;28;20101;-68
2021/09/12 02:42:06;;;;;;;31.80;16.45;;;;;;;12.29;100.00;101688.72;5081173;28;20028;-69
2021/09/12 02:44:32;;;;;;;30.17;15.77;;;;;;;12.27;100.00;101685.16;5083902;28;20119;-68
2021/09/12 02:46:57;;;;;;;32.17;17.23;;;;;;;12.20;100.00;101679.81;5082615;28;20032;-69
2021/09/12 02:49:23;;;;;;;30.75;16.15;;;;;;;12.16;100.00;101683.28;5082457;28;20060;-69
2021/09/12 02:51:48;;;;;;;32.85;16.58;;;;;;;12.13;100.00;101695.59;5083401;28;20513;-68
2021/09/12 02:54:13;;;;;;;31.20;16.23;;;;;;;12.12;100.00;101685.91;5081418;28;20044;-69
2021/09/12 02:56:39;;;;;;;31.40;16.50;;;;;;;12.08;100.00;101689.38;5084635;28;20085;-69
2021/09/12 02:59:04;;;;;;;29.25;15.68;;;;;;;11.99;100.00;101685.75;5081612;28;20025;-69
2021/09/12 03:01:29;;;;;;;31.48;15.68;;;;;;;11.98;100.00;101685.72;5083222;28;20102;-69
2021/09/12 03:03:55;;;;;;;31.80;15.90;;;;;;;11.95;100.00;101683.91;5082519;28;20044;-69
2021/09/12 03:06:20;;;;;;;29.83;16.05;;;;;;;11.88;100.00;101689.97;5082022;28;20434;-69
2021/09/12 03:08:45;;;;;;;30.52;16.10;;;;;;;11.83;100.00;101691.69;5083739;28;20094;-68
2021/09/12 03:11:11;;;;;;;32.58;16.77;;;;;;;11.80;100.00;101687.25;5081099;28;20056;-69
2021/09/12 03:13:36;;;;;;;28.77;15.75;;;;;;;11.78;100.00;101693.38;5084264;28;20382;-69
2021/09/12 03:16:02;;;;;;;31.63;15.50;;;;;;;11.75;100.00;101688.06;5063460;28;20521;-69
2021/09/12 03:18:27;;;;;;;32.25;15.57;;;;;;;11.72;100.00;101688.91;5083016;28;20051;-69
2021/09/12 03:20:53;;;;;;;32.08;16.30;;;;;;;11.70;100.00;101695.94;5082890;28;20069;-65
2021/09/12 03:23:18;;;;;;;31.63;16.15;;;;;;;11.66;100.00;101687.09;5081405;28;20020;-63
2021/09/12 03:25:43;;;;;;;31.23;16.10;;;;;;;11.65;100.00;101687.06;5084263;28;20077;-65
2021/09/12 03:28:09;;;;;;;30.92;16.02;;;;;;;11.62;100.00;101687.91;5080679;28;20033;-61
2021/09/12 03:30:34;;;;;;;30.58;15.38;;;;;;;11.61;100.00;101682.59;5083576;28;20051;-64
2021/09/12 03:33:00;;;;;;;30.17;15.20;;;;;;;11.61;100.00;101679.94;5082048;28;20085;-64
2021/09/12 03:35:25;;;;;;;32.08;15.52;;;;;;;11.57;100.00;101681.66;5082206;28;20051;-64
2021/09/12 03:37:50;;;;;;;30.65;15.13;;;;;;;11.56;100.00;101682.50;5082741;28;20082;-63
2021/09/12 03:40:16;;;;;;;29.98;15.77;;;;;;;11.51;100.00;101679.81;5081111;28;20056;-63
2021/09/12 03:42:41;;;;;;;29.67;14.80;;;;;;;11.52;100.00;101686.88;5086146;28;20059;-63
2021/09/12 03:45:07;;;;;;;27.63;14.80;;;;;;;11.47;100.00;101683.25;5084641;28;20051;-63
2021/09/12 03:47:33;;;;;;;32.00;15.25;;;;;;;11.45;100.00;101679.72;5087497;28;20032;-64
2021/09/12 03:49:58;;;;;;;30.75;15.15;;;;;;;11.42;100.00;101679.69;5085517;28;20020;-64
2021/09/12 03:52:23;;;;;;;28.98;14.30;;;;;;;11.39;100.00;101678.72;5085734;28;20048;-65
2021/09/12 03:54:49;;;;;;;28.15;14.10;;;;;;;11.40;100.00;101680.53;5086846;28;20028;-63
2021/09/12 03:57:14;;;;;;;30.15;15.57;;;;;;;11.37;100.00;101680.47;5084532;28;20124;-62
2021/09/12 03:59:39;;;;;;;29.05;14.10;;;;;;;11.37;100.00;101681.34;5088128;28;20194;-64
2021/09/12 04:02:05;;;;;;;28.35;14.25;;;;;;;11.36;100.00;101678.69;5084380;28;20095;-63
2021/09/12 04:04:30;;;;;;;30.35;14.27;;;;;;;11.39;100.00;101677.00;5086430;28;20103;-68
2021/09/12 04:06:55;;;;;;;30.05;14.57;;;;;;;11.38;100.00;101677.84;5086102;28;20028;-69
2021/09/12 04:09:21;;;;;;;29.40;13.77;;;;;;;11.33;100.00;101679.56;5084735;28;20028;-69
2021/09/12 04:11:46;;;;;;;28.98;13.90;;;;;;;11.27;100.00;101685.66;5086892;28;20051;-69
2021/09/12 04:14:11;;;;;;;31.08;13.60;;;;;;;11.30;100.00;101679.50;5084059;28;20024;-69
2021/09/12 04:16:37;;;;;;;29.67;13.90;;;;;;;11.23;100.00;101681.19;5087283;28;20123;-68
2021/09/12 04:19:03;;;;;;;29.33;13.82;;;;;;;11.25;100.00;101682.06;5084569;28;20020;-69
2021/09/12 04:21:28;;;;;;;31.13;13.68;;;;;;;11.23;100.00;101683.81;5085959;28;20027;-69
2021/09/12 04:23:54;;;;;;;29.13;13.52;;;;;;;11.22;100.00;101683.81;5085600;28;20458;-69
2021/09/12 04:26:19;;;;;;;30.50;14.07;;;;;;;11.22;100.00;101681.16;5084719;28;20025;-70
2021/09/12 04:28:44;;;;;;;27.70;13.13;;;;;;;11.21;100.00;101687.31;5086860;28;20478;-68
2021/09/12 04:31:11;;;;;;;29.33;13.70;;;;;;;11.17;100.00;101683.75;5083657;28;20031;-68
2021/09/12 04:33:37;;;;;;;27.05;13.48;;;;;;;11.15;100.00;101690.75;5086822;28;20020;-69
2021/09/12 04:36:02;;;;;;;29.35;13.15;;;;;;;11.10;100.00;101688.03;5084201;28;20467;-69
2021/09/12 04:38:28;;;;;;;29.67;13.48;;;;;;;11.09;100.00;101691.53;5085841;28;20050;-68
2021/09/12 04:40:53;;;;;;;27.10;13.30;;;;;;;11.08;100.00;101691.50;5085520;28;20119;-69
2021/09/12 04:43:18;;;;;;;30.65;13.85;;;;;;;11.09;100.00;101691.53;5083967;28;20483;-69
2021/09/12 04:45:44;;;;;;;29.55;14.48;;;;;;;11.08;100.00;101694.16;5086807;28;20081;-69
2021/09/12 04:48:09;;;;;;;29.42;14.50;;;;;;;11.05;100.00;101697.63;5083313;28;20093;-69
2021/09/12 04:50:34;;;;;;;29.00;13.75;;;;;;;10.99;100.00;101695.81;5086141;28;20024;-62
2021/09/12 04:53:00;;;;;;;29.77;13.85;;;;;;;10.97;100.00;101705.47;5083471;28;20507;-63
2021/09/12 04:55:25;;;;;;;29.42;14.02;;;;;;;10.94;100.00;101697.47;5084232;28;20536;-62
2021/09/12 04:57:51;;;;;;;30.85;14.50;;;;;;;10.91;100.00;101696.56;5085546;28;20032;-63
2021/09/12 05:00:16;;;;;;;30.27;14.27;;;;;;;10.89;100.00;101706.19;5083451;28;20059;-60
2021/09/12 05:02:41;;;;;;;29.33;14.48;;;;;;;10.88;100.00;101704.41;5086980;28;20020;-63
2021/09/12 05:05:07;;;;;;;29.38;14.25;;;;;;;10.86;100.00;101703.50;5083109;28;20380;-62
2021/09/12 05:07:33;;;;;;;28.73;13.48;;;;;;;10.87;100.00;101705.28;5085912;28;20024;-63
2021/09/12 05:09:58;;;;;;;30.33;13.77;;;;;;;10.86;100.00;101704.38;5084225;28;20020;-64
2021/09/12 05:12:24;;;;;;;29.88;13.50;;;;;;;10.81;100.00;101701.66;5082522;28;21271;-61
2021/09/12 05:14:50;;;;;;;27.77;13.57;;;;;;;10.80;100.00;101705.19;5084361;28;20024;-61
2021/09/12 05:17:15;;;;;;;29.15;13.77;;;;;;;10.79;100.00;101708.69;5086842;28;20063;-59
2021/09/12 05:19:40;;;;;;;30.08;14.40;;;;;;;10.82;100.00;101705.22;5087920;28;20024;-59
2021/09/12 05:22:06;;;;;;;30.60;14.00;;;;;;;10.85;100.00;101712.28;5085044;28;20020;-60
2021/09/12 05:24:31;;;;;;;29.80;13.80;;;;;;;10.87;100.00;101710.59;5069732;28;20046;-60
2021/09/12 05:26:56;;;;;;;31.63;13.93;;;;;;;10.87;100.00;101714.13;5088987;28;20410;-61
2021/09/12 05:29:23;;;;;;;27.80;13.68;;;;;;;10.91;100.00;101709.78;5086423;28;20028;-59
2021/09/12 05:31:54;;;;;;;29.25;13.93;;;;;;;10.92;100.00;101715.09;5087872;28;20103;-60
2021/09/12 05:34:19;;;;;;;29.85;12.63;;;;;;;10.95;100.00;101714.22;5085637;28;20028;-59
2021/09/12 05:36:44;;;;;;;28.05;12.38;;;;;;;11.00;100.00;101704.63;5089382;28;20027;-59
2021/09/12 05:39:10;;;;;;;28.67;13.10;;;;;;;11.03;100.00;101702.03;5087405;28;20520;-60
2021/09/12 05:41:36;;;;;;;28.83;13.50;;;;;;;11.07;100.00;101705.63;5086032;28;20043;-60
2021/09/12 05:44:01;;;;;;;28.40;13.80;;;;;;;11.12;100.00;101710.09;5089254;28;20027;-60
2021/09/12 05:46:26;;;;;;;29.00;14.18;;;;;;;11.16;100.00;101706.63;5088465;28;20027;-62
2021/09/12 05:48:52;;;;;;;28.58;13.65;;;;;;;11.20;100.00;101712.88;5087734;28;20089;-62
2021/09/12 05:51:17;;;;;;;31.05;14.50;;;;;;;11.24;100.00;101708.53;5088612;28;20055;-65
2021/09/12 05:53:42;;;;;;;28.33;14.15;;;;;;;11.29;100.00;101717.44;5089500;28;20108;-63
2021/09/12 05:56:08;;;;;;;30.30;13.48;;;;;;;11.38;100.00;101716.69;5079439;28;20032;-62
2021/09/12 05:58:33;;;;;;;26.75;13.07;;;;;;;11.44;100.00;101714.13;5081454;28;20016;-64
2021/09/12 06:00:59;;;;;;;28.05;13.27;;;;;;;11.47;100.00;101720.34;5083714;28;20498;-62
2021/09/12 06:03:24;;;;;;;27.85;13.70;;;;;;;11.52;100.00;101721.31;5081921;28;20024;-61
2021/09/12 06:05:49;;;;;;;27.55;13.00;;;;;;;11.59;100.00;101721.38;5083545;28;20024;-63
2021/09/12 06:08:15;;;;;;;27.52;12.90;;;;;;;11.62;100.00;101718.78;5082085;28;20055;-65
2021/09/12 06:10:40;;;;;;;26.23;13.23;;;;;;;11.65;100.00;101719.72;5084180;28;20147;-67
2021/09/12 06:13:05;;;;;;;29.65;13.57;;;;;;;11.69;100.00;101721.56;5081810;28;20050;-67
2021/09/12 06:15:31;;;;;;;25.48;12.07;;;;;;;11.75;100.00;101726.03;5082525;28;20101;-67
2021/09/12 06:17:56;;;;;;;25.85;12.63;;;;;;;11.81;100.00;101720.81;5080918;28;20050;-68
2021/09/12 06:20:22;;;;;;;27.38;12.77;;;;;;;11.83;100.00;101727.00;5083748;28;20017;-70
2021/09/12 06:22:49;;;;;;;28.55;12.90;;;;;;;11.89;100.00;101722.69;5081579;28;20375;-67
2021/09/12 06:25:14;;;;;;;28.92;12.88;;;;;;;11.91;100.00;101726.22;5083678;28;20037;-67
2021/09/12 06:27:40;;;;;;;27.55;12.80;;;;;;;11.93;100.00;101724.50;5083115;28;20119;-69
2021/09/12 06:30:08;;;;;;;30.30;13.27;;;;;;;12.00;100.00;101729.06;5084603;28;20035;-63
2021/09/12 06:32:34;;;;;;;27.08;12.80;;;;;;;12.06;100.00;101733.50;5082413;28;20035;-68
2021/09/12 06:35:00;;;;;;;27.55;12.57;;;;;;;12.11;100.00;101737.13;5083927;28;20035;-67
2021/09/12 06:37:26;;;;;;;26.92;12.18;;;;;;;12.15;100.00;101742.47;5080440;28;20074;-62
2021/09/12 06:39:51;;;;;;;26.77;12.93;;;;;;;12.21;100.00;101741.66;5084414;28;20024;-68
2021/09/12 06:42:16;;;;;;;26.35;12.57;;;;;;;12.28;100.00;101746.16;5081774;28;20513;-62
2021/09/12 06:44:42;;;;;;;26.23;12.48;;;;;;;12.32;100.00;101744.41;5082750;28;20107;-60
2021/09/12 06:47:07;;;;;;;26.33;12.10;;;;;;;12.40;100.00;101736.56;5083377;28;20032;-59
2021/09/12 06:49:32;;;;;;;27.35;12.65;;;;;;;12.47;100.00;101739.31;5080689;28;20533;-61
2021/09/12 06:51:58;;;;;;;27.95;12.30;;;;;;;12.51;100.00;101735.81;5084180;28;20091;-62
2021/09/12 06:54:23;;;;;;;26.27;12.90;;;;;;;12.56;100.00;101739.38;5081234;28;20028;-62
2021/09/12 06:56:48;;;;;;;26.10;11.65;;;;;;;12.63;100.00;101740.34;5067613;28;20040;-60
2021/09/12 06:59:14;;;;;;;26.00;12.00;;;;;;;12.68;100.00;101732.44;5084982;28;20040;-60
2021/09/12 07:01:39;;;;;;;26.80;12.18;;;;;;;12.75;100.00;101733.41;5086600;28;20034;-59
2021/09/12 07:04:04;;;;;;;25.98;11.75;;;;;;;12.78;100.00;101728.13;5081670;28;20032;-59
2021/09/12 07:06:30;;;;;;;26.23;11.18;;;;;;;12.83;100.00;101732.59;5089946;28;20110;-59
2021/09/12 07:08:55;;;;;;;25.88;11.60;;;;;;;12.89;100.00;101737.94;5085597;28;20063;-59
2021/09/12 07:11:21;;;;;;;25.08;11.50;;;;;;;12.95;100.00;101741.53;5086120;28;20020;-59
2021/09/12 07:13:46;;;;;;;24.95;11.70;;;;;;;13.00;100.00;101745.09;5087497;28;20025;-59
2021/09/12 07:16:12;;;;;;;26.27;11.57;;;;;;;13.07;100.00;101736.31;5089838;28;20071;-62
2021/09/12 07:18:40;;;;;;;25.50;11.73;;;;;;;13.12;100.00;101734.59;5087400;28;20035;-63
2021/09/12 07:21:05;;;;;;;24.52;11.18;;;;;;;13.16;100.00;101739.03;5092877;28;20058;-60
2021/09/12 07:23:31;;;;;;;24.45;11.18;;;;;;;13.18;100.00;101729.34;5091958;28;20052;-62
2021/09/12 07:25:57;;;;;;;26.35;11.43;;;;;;;13.24;100.00;101733.81;5089390;28;20020;-60
2021/09/12 07:28:22;;;;;;;26.40;10.63;;;;;;;13.26;100.00;101726.72;5084323;28;20123;-62
2021/09/12 07:30:47;;;;;;;25.98;11.20;;;;;;;13.32;100.00;101723.22;5087302;28;20042;-62
2021/09/12 07:33:13;;;;;;;28.23;11.73;;;;;;;13.38;100.00;101720.66;5085984;28;20031;-62
2021/09/12 07:35:38;;;;;;;25.42;11.30;;;;;;;13.46;100.00;101724.25;5086264;28;20486;-69
2021/09/12 07:38:03;;;;;;;25.27;11.02;;;;;;;13.53;100.00;101720.75;5086630;28;20555;-70
2021/09/12 07:40:29;;;;;;;26.08;11.38;;;;;;;13.64;100.00;101726.13;5084746;28;20021;-69
2021/09/12 07:42:54;;;;;;;26.40;11.30;;;;;;;13.72;100.00;101728.84;5087997;28;20028;-69
2021/09/12 07:45:19;;;;;;;25.23;11.10;;;;;;;13.74;100.00;101727.94;5084496;28;20063;-68
2021/09/12 07:47:45;;;;;;;25.42;11.23;;;;;;;13.75;100.00;101726.19;5072229;28;20043;-67
2021/09/12 07:50:11;;;;;;;27.50;12.00;;;;;;;13.82;100.00;101725.34;5091946;28;20078;-69
2021/09/12 07:52:41;;;;;;;25.65;10.75;;;;;;;13.85;100.00;101732.41;5089569;28;20058;-67
2021/09/12 07:55:07;;;;;;;25.48;11.48;;;;;;;13.82;100.00;101732.41;5091062;28;20118;-70
2021/09/12 07:57:32;;;;;;;25.85;11.43;;;;;;;13.82;100.00;101730.66;5084136;28;20112;-69
2021/09/12 07:59:58;;;;;;;26.80;11.90;;;;;;;13.88;100.00;101728.03;5082518;28;20051;-65
2021/09/12 08:02:23;;;;;;;25.33;11.63;;;;;;;14.00;100.00;101734.28;5086994;28;20055;-66
2021/09/12 08:04:48;;;;;;;26.17;11.75;;;;;;;14.10;100.00;101733.44;5084334;28;20368;-65
2021/09/12 08:07:14;;;;;;;25.55;11.23;;;;;;;14.19;100.00;101738.78;5086814;28;20079;-68
2021/09/12 08:09:39;;;;;;;24.08;11.65;;;;;;;14.34;100.00;101737.06;5085808;28;20505;-69
2021/09/12 08:12:07;;;;;;;25.05;11.25;;;;;;;14.48;100.00;101730.00;5066551;28;20063;-69
2021/09/12 08:14:33;;;;;;;26.88;12.02;;;;;;;14.58;100.00;101734.44;5086629;28;20020;-67
2021/09/12 08:16:59;;;;;;;27.55;12.15;;;;;;;14.59;100.00;101746.88;5084191;28;20078;-68
2021/09/12 08:19:24;;;;;;;25.60;11.60;;;;;;;14.58;100.00;101753.06;5087160;28;20019;-67
2021/09/12 08:21:49;;;;;;;26.58;12.27;;;;;;;14.56;100.00;101746.88;5084286;28;20399;-70
2021/09/12 08:24:15;;;;;;;25.90;11.65;;;;;;;14.62;100.00;101756.66;5086171;28;20411;-69
2021/09/12 08:26:40;;;;;;;28.73;12.20;;;;;;;14.68;100.00;101753.13;5084854;28;20028;-70
2021/09/12 08:29:05;;;;;;;28.38;12.30;;;;;;;14.79;100.00;101764.69;5085186;28;20044;-69
2021/09/12 08:31:31;;;;;;;28.10;12.63;;;;;;;14.90;100.00;101764.72;5086179;28;20456;-69
2021/09/12 08:33:56;;;;;;;26.90;12.73;;;;;;;15.09;100.00;101766.47;5083346;28;20374;-70
2021/09/12 08:36:22;;;;;;;26.77;12.45;;;;;;;15.30;100.00;101765.59;5087159;28;20032;-70
2021/09/12 08:38:47;;;;;;;27.25;12.07;;;;;;;15.46;100.00;101762.91;5083794;28;20079;-69
2021/09/12 08:41:13;;;;;;;27.20;12.32;;;;;;;15.77;100.00;101760.19;5086049;28;20025;-68
2021/09/12 08:43:40;;;;;;;25.42;11.45;;;;;;;16.26;98.72;101761.81;5085078;28;20028;-64
2021/09/12 08:46:06;;;;;;;26.85;11.73;;;;;;;16.72;93.00;101762.44;5084557;28;20029;-70
2021/09/12 08:48:31;;;;;;;28.38;11.32;;;;;;;16.97;88.52;101762.28;5086044;28;20081;-68
2021/09/12 08:50:56;;;;;;;25.60;11.63;;;;;;;16.86;88.67;101764.13;5083534;28;20055;-70
2021/09/12 08:53:23;;;;;;;25.73;11.30;;;;;;;16.92;87.99;101761.47;5086601;28;20068;-68
2021/09/12 08:55:48;;;;;;;25.15;11.57;;;;;;;17.37;85.89;101756.63;5085583;28;20076;-68
2021/09/12 08:58:14;;;;;;;26.63;11.52;;;;;;;17.99;86.29;101758.66;5085659;28;20028;-69
2021/09/12 09:00:44;;;;;;;25.65;10.82;;;;;;;18.54;80.55;101764.19;5084510;28;20485;-71
2021/09/12 09:03:09;;;;;;;24.48;10.77;;;;;;;18.52;77.52;101764.19;5084681;28;20025;-71
2021/09/12 09:05:42;;;;;;;24.52;10.73;;;;;;;18.20;79.36;101767.31;5084778;28;20420;-70
2021/09/12 09:08:10;;;;;;;26.20;10.77;;;;;;;18.54;78.20;101767.75;5084454;28;20387;-70
2021/09/12 09:10:41;;;;;;;25.05;10.90;;;;;;;18.85;75.42;101769.97;5084824;28;20024;-67
2021/09/12 09:13:25;;;;;;;25.20;10.68;;;;;;;19.05;76.44;101769.69;5084202;28;20024;-71
2021/09/12 09:15:51;;;;;;;25.13;10.35;;;;;;;19.18;74.85;101765.00;5082926;28;20113;-67
2021/09/12 09:18:17;;;;;;;24.33;10.40;;;;;;;19.13;75.34;101770.47;5085504;28;20124;-71
2021/09/12 09:20:42;;;;;;;25.13;10.65;;;;;;;19.22;73.86;101768.50;5083594;28;20375;-71
2021/09/12 09:23:08;;;;;;;25.13;10.63;;;;;;;19.05;76.12;101772.38;5084400;28;20021;-69
2021/09/12 09:25:34;;;;;;;26.50;11.65;;;;;;;18.95;76.07;101765.38;5084663;28;20028;-71
2021/09/12 09:28:09;;;;;;;24.73;11.88;;;;;;;19.02;73.64;101774.19;5083035;28;20414;-71
2021/09/12 09:30:53;;;;;;;25.35;11.63;;;;;;;18.72;75.83;101765.72;5084470;28;20074;-68
2021/09/12 09:33:22;;;;;;;25.63;12.45;;;;;;;18.80;75.01;101770.03;5085843;28;20050;-70
2021/09/12 09:35:56;;;;;;;25.80;12.13;;;;;;;18.79;77.19;101776.31;5082555;28;20027;-68
2021/09/12 09:38:27;;;;;;;25.15;12.50;;;;;;;18.32;77.27;101775.19;5082220;28;20032;-67
2021/09/12 09:41:05;;;;;;;26.83;13.20;;;;;;;18.19;79.00;101778.91;5081602;28;20050;-68
2021/09/12 09:43:44;;;;;;;27.08;12.27;;;;;;;18.15;80.57;101783.44;5083077;28;20079;-69
2021/09/12 09:46:45;;;;;;;26.50;12.98;;;;;;;18.14;80.93;101783.44;5083782;28;20028;-68
2021/09/12 09:49:21;;;;;;;29.58;13.60;;;;;;;18.09;79.77;101784.38;4992354;28;20502;-67
2021/09/12 09:51:48;;;;;;;26.05;13.07;;;;;;;18.06;79.43;101781.75;4992036;28;20057;-62
2021/09/12 09:54:17;;;;;;;26.15;13.15;;;;;;;18.19;81.26;101787.84;4992510;28;20121;-66
2021/09/12 09:56:45;;;;;;;26.08;12.85;;;;;;;18.46;81.07;101783.94;4991943;28;20081;-70
2021/09/12 09:59:13;;;;;;;26.17;12.90;;;;;;;18.54;78.62;101777.59;4992187;28;20040;-67
2021/09/12 10:01:40;;;;;;;25.67;12.20;;;;;;;18.66;77.86;101782.75;4992359;28;20081;-68
2021/09/12 10:04:06;;;;;;;24.88;13.23;;;;;;;18.59;77.98;101775.72;4991861;28;20477;-67
2021/09/12 10:06:31;;;;;;;24.08;12.35;;;;;;;18.96;75.18;101777.84;4991963;28;20030;-67
2021/09/12 10:08:57;;;;;;;25.02;12.20;;;;;;;19.23;73.71;101776.53;4991945;28;20389;-63
2021/09/12 10:11:22;;;;;;;25.23;12.90;;;;;;;19.06;72.82;101773.25;4991976;28;20035;-69
2021/09/12 10:13:49;;;;;;;25.88;13.55;;;;;;;18.72;75.23;101766.59;4991757;28;20097;-69
2021/09/12 10:16:17;;;;;;;26.83;13.10;;;;;;;18.46;76.53;101775.91;4991779;28;20088;-66
2021/09/12 10:18:42;;;;;;;26.88;13.00;;;;;;;18.47;78.04;101772.28;4991801;28;20073;-64
2021/09/12 10:21:29;;;;;;;26.05;13.00;;;;;;;18.55;78.12;101769.53;4991275;28;20022;-67
2021/09/12 10:23:57;;;;;;;26.52;13.77;;;;;;;18.60;75.62;101774.81;5046739;28;20442;-68
2021/09/12 10:26:31;;;;;;;26.08;14.27;;;;;;;18.90;77.49;101770.84;5060996;28;20096;-64
2021/09/12 10:28:57;;;;;;;26.42;14.10;;;;;;;19.17;74.75;101769.47;5060928;28;20108;-63
2021/09/12 10:31:25;;;;;;;26.17;13.13;;;;;;;19.65;74.71;101765.94;5064164;28;20099;-62
2021/09/12 10:34:05;;;;;;;27.70;15.02;;;;;;;19.60;73.32;101766.94;5061118;28;20056;-63
2021/09/12 10:36:30;;;;;;;26.02;14.40;;;;;;;19.58;73.09;101761.59;5061480;28;20037;-64
2021/09/12 10:38:56;;;;;;;27.70;15.02;;;;;;;19.48;72.06;101762.69;5064222;28;20379;-64
2021/09/12 10:41:21;;;;;;;28.45;16.85;;;;;;;19.38;74.19;101761.09;5060789;28;20033;-63
2021/09/12 10:43:48;;;;;;;26.67;15.35;;;;;;;19.60;72.65;101761.56;5064404;28;20047;-64
2021/09/12 10:46:13;;;;;;;27.95;15.38;;;;;;;20.86;70.37;101758.06;5061926;28;20059;-65
2021/09/12 10:48:44;;;;;;;25.35;14.85;;;;;;;21.41;65.25;101761.16;5062961;28;20049;-64
2021/09/12 10:51:09;;;;;;;25.92;15.07;;;;;;;21.83;63.21;101763.63;5062003;28;20111;-64
2021/09/12 10:53:47;;;;;;;27.83;15.45;;;;;;;21.84;63.24;101775.25;5081632;28;20128;-62
2021/09/12 10:56:30;;;;;;;28.55;15.80;;;;;;;21.13;65.57;101763.66;5081968;28;20455;-64
2021/09/12 10:59:12;;;;;;;27.88;16.63;;;;;;;20.52;68.40;101774.94;5081140;28;20025;-62